Flight Track Log - Related Links

Times and Time Zones

All times are in EST time to prevent confusion due to time zone crossing. See the CSN6702 flight status page for this flight to view local times or setup timezone preferences in your user account.


Time Position Orientation Groundspeed Altitude Reporting Facility
EST Latitude Longitude Course Direction KTS MPH feet Rate Location/Type
Sat 01:19:00 AM 29.5305 121.8411 228° Southwest  Level Estimated
Sat 01:20:00 AM 29.4727 121.7670 228° Southwest  Level Estimated
Sat 01:21:00 AM 29.4148 121.6930 228° Southwest  Level Estimated
Sat 01:22:00 AM 29.3569 121.6191 228° Southwest  Level Estimated
Sat 01:23:00 AM 29.2989 121.5452 228° Southwest  Level Estimated
Sat 01:24:00 AM 29.2409 121.4715 228° Southwest  Level Estimated
Sat 01:25:00 AM 29.1829 121.3978 228° Southwest  Level Estimated
Sat 01:26:00 AM 29.1248 121.3242 228° Southwest  Level Estimated
Sat 01:27:00 AM 29.0667 121.2506 228° Southwest  Level Estimated
Sat 01:28:00 AM 29.0085 121.1772 228° Southwest  Level Estimated
Sat 01:29:00 AM 28.9503 121.1039 228° Southwest  Level Estimated
Sat 01:30:00 AM 28.8921 121.0306 228° Southwest  Level Estimated
Sat 01:31:00 AM 28.8338 120.9574 228° Southwest  Level Estimated
Sat 01:32:00 AM 28.7755 120.8843 228° Southwest  Level Estimated
Sat 01:33:00 AM 28.7171 120.8113 228° Southwest  Level Estimated
Sat 01:34:00 AM 28.6587 120.7383 228° Southwest  Level Estimated
Sat 01:35:00 AM 28.6003 120.6655 228° Southwest  Level Estimated
Sat 01:36:00 AM 28.5418 120.5927 228° Southwest  Level Estimated
Sat 01:37:00 AM 28.4833 120.5200 228° Southwest  Level Estimated
Sat 01:38:00 AM 28.4247 120.4474 227° Southwest  Level Estimated
Sat 01:39:00 AM 28.3661 120.3748 227° Southwest  Level Estimated
Sat 01:40:00 AM 28.3075 120.3024 227° Southwest  Level Estimated
Sat 01:41:00 AM 28.2488 120.2300 227° Southwest  Level Estimated
Sat 01:42:00 AM 28.1901 120.1577 227° Southwest  Level Estimated
Sat 01:43:00 AM 28.1314 120.0855 227° Southwest  Level Estimated
Sat 01:44:00 AM 28.0726 120.0134 227° Southwest  Level Estimated
Sat 01:45:00 AM 28.0138 119.9413 227° Southwest  Level Estimated
Sat 01:46:00 AM 27.9550 119.8693 227° Southwest  Level Estimated
Sat 01:47:00 AM 27.8961 119.7974 227° Southwest  Level Estimated
Sat 01:48:00 AM 27.8371 119.7256 227° Southwest  Level Estimated
Sat 01:49:00 AM 27.7782 119.6538 227° Southwest  Level Estimated
Sat 01:50:00 AM 27.7192 119.5822 227° Southwest  Level Estimated
Sat 01:51:00 AM 27.6601 119.5106 227° Southwest  Level Estimated
Sat 01:52:00 AM 27.6010 119.4391 227° Southwest  Level Estimated
Sat 01:53:00 AM 27.5419 119.3676 227° Southwest  Level Estimated
Sat 01:54:00 AM 27.4828 119.2963 227° Southwest  Level Estimated
Sat 01:55:00 AM 27.4236 119.2250 227° Southwest  Level Estimated
Sat 01:56:00 AM 27.3644 119.1538 227° Southwest  Level Estimated
Sat 01:57:00 AM 27.3051 119.0826 227° Southwest  Level Estimated
Sat 01:58:00 AM 27.2458 119.0116 227° Southwest  Level Estimated
Sat 01:59:00 AM 27.1865 118.9406 227° Southwest  Level Estimated
Sat 02:00:00 AM 27.1271 118.8697 227° Southwest  Level Estimated
Sat 02:01:00 AM 27.0677 118.7989 227° Southwest  Level Estimated
Sat 02:02:00 AM 27.0083 118.7281 227° Southwest  Level Estimated
Sat 02:03:00 AM 26.9488 118.6575 227° Southwest  Level Estimated
Sat 02:04:00 AM 26.8893 118.5869 227° Southwest  Level Estimated
Sat 02:05:00 AM 26.8298 118.5163 227° Southwest  Level Estimated
Sat 02:06:00 AM 26.7702 118.4459 227° Southwest  Level Estimated
Sat 02:07:00 AM 26.7106 118.3755 227° Southwest  Level Estimated
Sat 02:08:00 AM 26.6509 118.3052 226° Southwest  Level Estimated
Sat 02:09:00 AM 26.5912 118.2350 226° Southwest  Level Estimated
Sat 02:10:00 AM 26.5315 118.1648 226° Southwest  Level Estimated
Sat 02:11:00 AM 26.4718 118.0947 226° Southwest  Level Estimated
Sat 02:12:00 AM 26.4120 118.0247 226° Southwest  Level Estimated
Sat 02:13:00 AM 26.3521 117.9548 226° Southwest  Level Estimated
Sat 02:14:00 AM 26.2923 117.8849 226° Southwest  Level Estimated
Sat 02:15:00 AM 26.2324 117.8151 226° Southwest  Level Estimated
Sat 02:16:00 AM 26.1725 117.7454 226° Southwest  Level Estimated
Sat 02:17:00 AM 26.1125 117.6757 226° Southwest  Level Estimated
Sat 02:18:00 AM 26.0525 117.6061 226° Southwest  Level Estimated
Sat 02:19:00 AM 25.9925 117.5366 226° Southwest  Level Estimated
Sat 02:20:00 AM 25.9325 117.4672 226° Southwest  Level Estimated
Sat 02:21:00 AM 25.8724 117.3978 226° Southwest  Level Estimated
Sat 02:22:00 AM 25.8123 117.3285 226° Southwest  Level Estimated
Sat 02:23:00 AM 25.7521 117.2593 226° Southwest  Level Estimated
Sat 02:24:00 AM 25.6919 117.1901 226° Southwest  Level Estimated
Sat 02:25:00 AM 25.6317 117.1210 226° Southwest  Level Estimated
Sat 02:26:00 AM 25.5715 117.0520 226° Southwest  Level Estimated
Sat 02:27:00 AM 25.5112 116.9831 226° Southwest  Level Estimated
Sat 02:28:00 AM 25.4509 116.9142 226° Southwest  Level Estimated
Sat 02:29:00 AM 25.3905 116.8454 226° Southwest  Level Estimated
Sat 02:30:00 AM 25.3301 116.7766 226° Southwest  Level Estimated
Sat 02:31:00 AM 25.2697 116.7080 226° Southwest  Level Estimated
Sat 02:32:00 AM 25.2093 116.6394 226° Southwest  Level Estimated
Sat 02:33:00 AM 25.1488 116.5708 226° Southwest  Level Estimated
Sat 02:34:00 AM 25.0883 116.5023 226° Southwest  Level Estimated
Sat 02:35:00 AM 25.0278 116.4339 226° Southwest  Level Estimated
Sat 02:36:00 AM 24.9672 116.3656 226° Southwest  Level Estimated
Sat 02:37:00 AM 24.9066 116.2973 226° Southwest  Level Estimated
Sat 02:38:00 AM 24.8460 116.2291 226° Southwest  Level Estimated
Sat 02:39:00 AM 24.7853 116.1610 226° Southwest  Level Estimated
Sat 02:40:00 AM 24.7246 116.0929 226° Southwest  Level Estimated
Sat 02:41:00 AM 24.6639 116.0249 226° Southwest  Level Estimated
Sat 02:42:00 AM 24.6031 115.9570 225° Southwest  Level Estimated
Sat 02:43:00 AM 24.5424 115.8891 225° Southwest  Level Estimated
Sat 02:44:00 AM 24.4816 115.8213 225° Southwest  Level Estimated
Sat 02:45:00 AM 24.4207 115.7536 225° Southwest  Level Estimated
Sat 02:46:00 AM 24.3598 115.6859 225° Southwest  Level Estimated
Sat 02:47:00 AM 24.2989 115.6183 225° Southwest  Level Estimated
Sat 02:48:00 AM 24.2380 115.5508 225° Southwest  Level Estimated
Sat 02:49:00 AM 24.1770 115.4833 225° Southwest  Level Estimated
Sat 02:50:00 AM 24.1160 115.4159 225° Southwest  Level Estimated
Sat 02:51:00 AM 24.0550 115.3485 225° Southwest  Level Estimated
Sat 02:52:00 AM 23.9940 115.2813 225° Southwest  Level Estimated
Sat 02:53:00 AM 23.9329 115.2140 225° Southwest  Level Estimated
Sat 02:54:00 AM 23.8718 115.1469 225° Southwest  Level Estimated
Sat 02:55:00 AM 23.8106 115.0798 225° Southwest  Level Estimated
Sat 02:56:00 AM 23.7495 115.0128 225° Southwest  Level Estimated
Sat 02:57:00 AM 23.6883 114.9458 225° Southwest  Level Estimated
Sat 02:58:00 AM 23.6270 114.8789 225° Southwest  Level Estimated
Sat 02:59:00 AM 23.5658 114.8120 225° Southwest  Level Estimated
Sat 03:00:00 AM 23.5045 114.7453 225° Southwest  Level Estimated
Sat 03:01:00 AM 23.4432 114.6786 225° Southwest  Level Estimated
Sat 03:02:00 AM 23.3818 114.6119 225° Southwest  Level Estimated
Sat 03:03:00 AM 23.3205 114.5453 225° Southwest  Level Estimated
Sat 03:04:00 AM 23.2591 114.4788 225° Southwest  Level Estimated
Sat 03:05:00 AM 23.1976 114.4123 225° Southwest  Level Estimated
Sat 03:06:00 AM 23.1362 114.3459 225° Southwest  Level Estimated
Sat 03:07:00 AM 23.0747 114.2795 225° Southwest  Level Estimated
Sat 03:08:00 AM 23.0132 114.2132 225° Southwest  Level Estimated
Sat 03:09:00 AM 22.9517 114.1470 225° Southwest  Level Estimated
Sat 03:10:00 AM 22.8901 114.0808 225° Southwest  Level Estimated
Sat 03:11:00 AM 22.8285 114.0147 225° Southwest  Level Estimated
Sat 03:12:00 AM 22.7669 113.9487 225° Southwest  Level Estimated
Sat 03:13:00 AM 22.7052 113.8827 225° Southwest  Level Estimated
Sat 03:14:00 AM 22.6436 113.8168 225° Southwest  Level Estimated
Sat 03:15:00 AM 22.6395 113.8124 225° Southwest  Level Estimated
Sat 03:16:00 AM 22.6395 113.8124 25° Northeast  Level Estimated
Sat 03:17:00 AM 22.6395 113.8124 25° Northeast  Level Estimated
Sat 03:18:00 AM 22.6395 113.8124 25° Northeast  Level Estimated
Sat 03:19:00 AM 22.6395 113.8124 25° Northeast  Level Estimated
Sat 03:20:00 AM 22.6395 113.8124 25° Northeast  Level Estimated
Sat 03:21:00 AM 22.6395 113.8124 25° Northeast  Level Estimated
Sat 03:22:00 AM 22.6395 113.8124 25° Northeast  Level Estimated
Sat 03:23:00 AM 22.6395 113.8124 25° Northeast  Level Estimated
Sat 03:24:00 AM 22.6395 113.8124 25° Northeast  Level Estimated
Sat 03:25:00 AM 22.6395 113.8124 25° Northeast  Level Estimated
Sat 03:26:00 AM 22.6395 113.8124 25° Northeast  Level Estimated
Sat 03:27:00 AM 22.6395 113.8124 25° Northeast  Level Estimated

Login

Don't have an account? Register now (free) for customized features, flight alerts, and more!